• Join FlightAware (Why Join?)
  • Login
  • US Flag 
07:28PM EDT


 

Airport Tracker/Info


-or-


 

Live Flight TrackerFlight Track Log ✈ CTL13 ✈ 29-Apr-2013 ✈ KMDW - KGRR

Flight Track Log - Related Links

Times and Time Zones

All times are in EDT time to prevent confusion due to time zone crossing. See the CTL13 flight status page for this flight to view local times or setup timezone preferences in your user account.

Time Position Orientation Groundspeed Altitude Reporting Facility
EDT Latitude Longitude Course Direction KTS MPH feet Rate Location/Type
11:17PM 41.7667 -87.7000 93° East 132 152 3,100  Level Chicago TRACON
11:19PM 41.7833 -87.6000 77° East 146 168 5,000 720 Climbing Chicago TRACON
11:20PM 41.7825 -87.5592 92° East 147 169 5,000  Level Chicago Center
11:21PM 41.7867 -87.4861 86° East 183 211 5,000 240 Level Chicago Center
11:22PM 41.7815 -87.4324 93° East  Level FlightAware Approximate
11:22PM 41.7889 -87.4172 87° East 188 216 5,600  Level Chicago Center
11:23PM 41.7791 -87.3690 93° East  Level FlightAware Approximate
11:23PM 41.7908 -87.3639 87° East 154 177 6,600  Level Chicago Center
11:24PM 41.7956 -87.3067 84° East 152 175 7,000 180 Climbing Chicago Center
11:25PM 41.8164 -87.2400 67° East 190 219 7,000 -60 Level Chicago Center
11:26PM 41.8511 -87.1872 49° Northeast 191 220 6,900 -60 Descending Chicago Center
11:27PM 41.8853 -87.1336 49° Northeast 191 220 6,900  Level Chicago Center
11:28PM 41.9178 -87.0864 47° Northeast 178 205 6,900  Level Chicago Center
11:29PM 41.9494 -87.0356 50° Northeast 179 206 7,000  Climbing Chicago Center
11:30PM 41.9811 -86.9842 50° Northeast 178 205 7,000  Level Chicago Center
11:31PM 42.0200 -86.9253 48° Northeast 177 204 7,000  Level Chicago Center
11:32PM 42.0486 -86.8811 49° Northeast 179 206 7,000  Level Chicago Center
11:33PM 42.0794 -86.8294 51° Northeast 178 205 7,000  Level Chicago Center
11:34PM 42.1117 -86.7789 49° Northeast 178 205 7,000  Level Chicago Center
11:35PM 42.1461 -86.7314 46° Northeast 177 204 7,000  Level Chicago Center
11:36PM 42.1778 -86.6803 50° Northeast 178 205 7,100  Climbing Chicago Center
11:37PM 42.2153 -86.6172 51° Northeast 179 206 7,100  Level Chicago Center
11:38PM 42.2456 -86.5653 52° Northeast 178 205 7,100  Level Chicago Center
11:39PM 42.2767 -86.5133 51° Northeast 178 205 7,100  Level Chicago Center
11:40PM 42.3083 -86.4664 48° Northeast 178 205 7,100  Level Chicago Center
11:41PM 42.3392 -86.4156 51° Northeast 176 203 7,100  Level Chicago Center
11:42PM 42.3711 -86.3664 49° Northeast 175 201 7,100 -60 Level Chicago Center
11:43PM 42.4039 -86.3172 48° Northeast 177 204 7,000  Descending Chicago Center
11:44PM 42.4353 -86.2675 49° Northeast 175 201 7,100  Climbing Chicago Center
11:45PM 42.4692 -86.2167 48° Northeast 180 207 7,000 -60 Descending Chicago Center
11:46PM 42.5003 -86.1658 50° Northeast 178 205 7,000  Level Chicago Center
11:47PM 42.5331 -86.1161 48° Northeast 177 204 7,000  Level Chicago Center
11:48PM 42.5639 -86.0644 51° Northeast 177 204 7,000  Level Chicago Center
11:49PM 42.5983 -86.0011 54° Northeast 175 201 7,000 -540 Level Chicago Center
11:50PM 42.6325 -85.9447 51° Northeast 188 216 6,000 -1,020 Descending Chicago Center
11:51PM 42.6675 -85.8850 51° Northeast 200 230 5,000 -960 Descending Chicago Center
11:52PM 42.7022 -85.8264 51° Northeast 201 231 4,100 -840 Descending Chicago Center
11:53PM 42.7372 -85.7689 50° Northeast 200 230 3,300 -840 Descending Chicago Center